Aérodrome :







RETROUVEZ-NOUS SUR...

 
LOGIN :

S'inscrire | Disclaimer

   EN    FR    IT 

 









Légende :    VFR   VFR Marginal   IFR   IFR Intensif   IFR Très Intensif
Visi : 
Plafond : 
>= 8 km
>= 3000ft
5 à 8 km
1000 à 3000 ft
1500m à 5 km
500 à 1000 ft
800 à 1500m
200 à 500 ft
< 800m
< 200 ft
Symboles :   Orages  Brouillard  Fortes neiges  Fortes précipitations  Vent > 20 kt






- Altitude de l'aérodrome : 1270 ft
- Code IATA : YMT


CYMT - Chapais

DERNIER METAR :
  • 150222Z AUTO 04008KT 3/4SM -SN VV012 M03/M04 A2914 RMK PRESFR SLP890

METARs EXPIRÉS :
  • 150200Z AUTO 04007G16KT 1 1/4SM -SN OVC016 M04/M04 A2916 RMK SLP897
  • 150100Z AUTO 04010G15KT 1SM -SN VV014 M04/M05 A2922 RMK PRESFR SLP920
  • 150038Z AUTO 05009G15KT 1SM -SN VV012 M04/M05 A2925 RMK PRESFR SLP928
  • 150023Z AUTO 04008KT 3/4SM -SN VV013 M04/M05 A2927 RMK PRESFR SLP935
  • 150000Z AUTO 03008KT 1SM -SN VV014 M04/M05 A2929 RMK PCPN 1.5MM PAST HR SLP941

Prévision TAF périmée.



MET'MAP, la Météo Aéronautique d'un coup d'oeil ! - Copyright ORBIFLY Décembre 2007 - Disclaimer

ORBIFLY MET'MAP TEAM :

Programmation & Développement : Alexandra Zaïnal
Sur une idée originale de : Baudouin d'Aumeries
Assistance à la programmation : Marc-Olivier Méhu
Soutien technique & logistique : Manuel Goepfert

Contact : metmap@orbifly.com




SOURCES & CREDITS :

   NOAA